createdAt,value
2022-10-12T00:01:33.353Z,8.80
2022-10-12T00:04:02.891Z,8.80
2022-10-12T00:06:52.833Z,8.80
2022-10-12T00:09:20.992Z,8.90
2022-10-12T00:11:48.069Z,8.90
2022-10-12T00:14:16.254Z,8.90
2022-10-12T00:16:44.247Z,9.00
2022-10-12T00:19:12.567Z,9.00
2022-10-12T00:21:39.536Z,9.00
2022-10-12T00:24:06.337Z,8.90
2022-10-12T00:26:33.522Z,8.90
2022-10-12T00:29:01.477Z,8.90
2022-10-12T00:31:28.968Z,8.90
2022-10-12T00:34:02.216Z,8.90
2022-10-12T00:36:32.368Z,8.90
2022-10-12T00:39:03.439Z,8.90
2022-10-12T00:41:32.408Z,8.90
2022-10-12T00:43:59.203Z,8.90
2022-10-12T00:46:45.225Z,8.80
2022-10-12T00:49:17.190Z,8.80
2022-10-12T00:51:45.290Z,8.80
2022-10-12T00:54:16.734Z,8.80
2022-10-12T00:56:44.748Z,8.80
2022-10-12T00:59:13.754Z,8.80
2022-10-12T01:01:40.490Z,8.80
2022-10-12T01:04:07.507Z,8.80
2022-10-12T01:06:35.292Z,8.90
2022-10-12T01:09:02.369Z,8.80
2022-10-12T01:11:29.295Z,8.90
2022-10-12T01:13:56.681Z,8.90
2022-10-12T01:16:36.561Z,8.90
2022-10-12T01:19:06.550Z,8.90
2022-10-12T01:21:37.630Z,9.00
2022-10-12T01:24:23.291Z,9.00
2022-10-12T01:26:50.041Z,9.00
2022-10-12T01:29:33.023Z,9.10
2022-10-12T01:32:08.506Z,9.10
2022-10-12T01:34:47.832Z,9.10
2022-10-12T01:37:33.549Z,9.10
2022-10-12T01:40:04.326Z,9.10
2022-10-12T01:42:43.112Z,9.10
2022-10-12T01:45:11.478Z,9.10
2022-10-12T01:47:39.981Z,9.10
2022-10-12T01:50:08.572Z,9.20
2022-10-12T01:52:44.762Z,9.20
2022-10-12T01:55:11.617Z,9.20
2022-10-12T01:57:50.067Z,9.20
2022-10-12T02:00:17.528Z,9.30
2022-10-12T02:02:50.603Z,9.30
2022-10-12T02:05:17.419Z,9.30
2022-10-12T02:07:47.945Z,9.30
2022-10-12T02:10:24.362Z,9.40
2022-10-12T02:12:51.756Z,9.50
2022-10-12T02:15:19.038Z,9.50
2022-10-12T02:17:48.096Z,9.50
2022-10-12T02:20:16.997Z,9.50
2022-10-12T02:22:45.466Z,9.60
2022-10-12T02:25:15.289Z,9.60
2022-10-12T02:27:44.187Z,9.60
2022-10-12T02:30:11.279Z,9.60
2022-10-12T02:32:38.011Z,9.70
2022-10-12T02:35:18.141Z,9.70
2022-10-12T02:37:46.675Z,9.80
2022-10-12T02:43:29.043Z,9.90
2022-10-12T02:45:56.853Z,9.90
2022-10-12T02:48:24.452Z,9.90
2022-10-12T02:50:52.837Z,10.00
2022-10-12T02:53:21.239Z,10.00
2022-10-12T02:55:48.992Z,10.00
2022-10-12T02:58:15.919Z,10.00
2022-10-12T03:00:42.805Z,10.10
2022-10-12T03:03:09.565Z,10.10
2022-10-12T03:05:36.393Z,10.10
2022-10-12T03:08:03.136Z,10.10
2022-10-12T03:10:30.157Z,10.10
2022-10-12T03:12:56.905Z,10.10
2022-10-12T03:15:23.641Z,10.20
2022-10-12T03:17:50.578Z,10.20
2022-10-12T03:20:23.124Z,10.20
2022-10-12T03:22:50.080Z,10.20
2022-10-12T03:25:16.982Z,10.20
2022-10-12T03:27:43.817Z,10.20
2022-10-12T03:30:11.467Z,10.20
2022-10-12T03:32:38.810Z,10.20
2022-10-12T03:35:05.860Z,10.30
2022-10-12T03:37:32.618Z,10.30
2022-10-12T03:39:59.391Z,10.30
2022-10-12T03:42:26.404Z,10.30
2022-10-12T03:44:53.090Z,10.30
2022-10-12T03:47:20.043Z,10.40
2022-10-12T03:49:46.798Z,10.40
2022-10-12T03:52:13.538Z,10.30
2022-10-12T03:54:40.342Z,10.30
2022-10-12T03:57:07.139Z,10.40
2022-10-12T03:59:34.000Z,10.40
2022-10-12T04:02:02.886Z,10.30
2022-10-12T04:04:29.639Z,10.30
2022-10-12T04:06:56.424Z,10.20
2022-10-12T04:09:24.246Z,10.20
2022-10-12T04:11:50.973Z,10.20
2022-10-12T04:14:17.988Z,10.20
2022-10-12T04:16:44.876Z,10.20
2022-10-12T04:19:14.831Z,10.10
2022-10-12T04:21:41.619Z,10.00
2022-10-12T04:24:08.383Z,10.10
2022-10-12T04:26:35.172Z,10.00
2022-10-12T04:29:02.045Z,10.00
2022-10-12T04:31:29.090Z,10.00
2022-10-12T04:36:43.444Z,9.90
2022-10-12T04:39:10.287Z,9.80
2022-10-12T04:41:37.221Z,9.80
2022-10-12T04:44:03.957Z,9.70
2022-10-12T04:46:30.744Z,9.70
2022-10-12T04:48:58.034Z,9.60
2022-10-12T04:51:27.777Z,9.60
2022-10-12T04:53:56.954Z,9.50
2022-10-12T04:56:23.799Z,9.50
2022-10-12T04:58:50.778Z,9.50
2022-10-12T05:04:46.171Z,9.50
2022-10-12T05:07:20.107Z,9.40
2022-10-12T05:09:46.965Z,9.40
2022-10-12T05:12:16.218Z,9.40
2022-10-12T05:14:44.575Z,9.40
2022-10-12T05:17:11.563Z,9.40
2022-10-12T05:19:39.715Z,9.30
2022-10-12T05:22:07.637Z,9.40
2022-10-12T05:24:34.454Z,9.40
2022-10-12T05:27:02.664Z,9.40
2022-10-12T05:29:29.563Z,9.30
2022-10-12T05:31:56.574Z,9.40
2022-10-12T05:34:23.532Z,9.30
2022-10-12T05:36:50.646Z,9.30
2022-10-12T05:39:17.403Z,9.30
2022-10-12T05:42:04.295Z,9.30
2022-10-12T05:44:31.034Z,9.30
2022-10-12T05:46:57.842Z,9.20
2022-10-12T05:49:24.674Z,9.20
2022-10-12T05:51:51.456Z,9.20
2022-10-12T05:54:18.214Z,9.20
2022-10-12T05:56:44.895Z,9.20
2022-10-12T05:59:11.703Z,9.20
2022-10-12T06:01:38.560Z,9.10
2022-10-12T06:04:05.317Z,9.10
2022-10-12T06:06:32.459Z,9.10
2022-10-12T06:08:59.354Z,9.10
2022-10-12T06:11:26.106Z,9.10
2022-10-12T06:13:54.509Z,9.10
2022-10-12T06:16:21.404Z,9.10
2022-10-12T06:18:48.188Z,9.10
2022-10-12T06:24:03.288Z,9.00
2022-10-12T06:26:30.328Z,9.10
2022-10-12T06:28:57.207Z,9.10
2022-10-12T06:31:27.478Z,9.10
2022-10-12T06:33:54.267Z,9.10
2022-10-12T06:36:21.330Z,9.10
2022-10-12T06:38:48.285Z,9.10
2022-10-12T06:41:18.580Z,9.10
2022-10-12T06:43:45.650Z,9.10
2022-10-12T06:46:12.541Z,9.10
2022-10-12T06:48:39.310Z,9.10
2022-10-12T06:51:06.178Z,9.10
2022-10-12T06:53:33.083Z,9.10
2022-10-12T06:56:00.220Z,9.10
2022-10-12T06:58:27.226Z,9.20
2022-10-12T07:00:54.061Z,9.10
2022-10-12T07:03:21.854Z,9.20
2022-10-12T07:05:48.582Z,9.20
2022-10-12T07:08:15.456Z,9.20
2022-10-12T07:10:42.279Z,9.30
2022-10-12T07:13:09.156Z,9.20
2022-10-12T07:15:36.086Z,9.30
2022-10-12T07:18:03.062Z,9.30
2022-10-12T07:20:30.199Z,9.30
2022-10-12T07:22:57.457Z,9.30
2022-10-12T07:25:24.549Z,9.30
2022-10-12T07:27:51.265Z,9.30
2022-10-12T07:30:18.188Z,9.30
2022-10-12T07:32:46.437Z,9.30
2022-10-12T07:35:13.146Z,9.40
2022-10-12T07:37:42.384Z,9.40
2022-10-12T07:40:09.607Z,9.40
2022-10-12T07:42:41.831Z,9.40
2022-10-12T07:45:23.117Z,9.40
2022-10-12T07:47:49.841Z,9.50
2022-10-12T07:50:16.823Z,9.50
2022-10-12T07:52:43.598Z,9.50
2022-10-12T07:55:10.341Z,9.50
2022-10-12T07:57:38.510Z,9.50
2022-10-12T08:00:05.924Z,9.60
2022-10-12T08:02:38.469Z,9.60
2022-10-12T08:05:05.527Z,9.60
2022-10-12T08:07:32.279Z,9.70
2022-10-12T08:09:59.369Z,9.70
2022-10-12T08:12:26.132Z,9.70
2022-10-12T08:14:52.934Z,9.80
2022-10-12T08:17:19.781Z,9.80
2022-10-12T08:19:46.640Z,9.90
2022-10-12T08:22:19.883Z,9.90
2022-10-12T08:24:50.187Z,9.90
2022-10-12T08:27:16.925Z,9.90
2022-10-12T08:29:43.809Z,9.90
2022-10-12T08:32:17.938Z,10.00
2022-10-12T08:34:48.937Z,10.10
2022-10-12T08:37:24.780Z,10.10
2022-10-12T08:39:51.552Z,10.10
2022-10-12T08:42:37.235Z,10.10
2022-10-12T08:45:30.313Z,10.20
2022-10-12T08:48:01.627Z,10.20
2022-10-12T08:50:36.954Z,10.30
2022-10-12T08:53:26.142Z,10.30
2022-10-12T08:55:56.932Z,10.30
2022-10-12T08:58:28.141Z,10.40
2022-10-12T09:01:06.466Z,10.40
2022-10-12T09:03:36.355Z,10.40
2022-10-12T09:06:06.199Z,10.50
2022-10-12T09:11:45.710Z,10.50
2022-10-12T09:14:24.777Z,10.60
2022-10-12T09:16:54.156Z,10.60
2022-10-12T09:19:22.289Z,10.70
2022-10-12T09:21:49.697Z,10.70
2022-10-12T09:24:20.862Z,10.80
2022-10-12T09:26:50.410Z,10.90
2022-10-12T09:29:23.188Z,10.90
2022-10-12T09:32:05.847Z,11.00
2022-10-12T09:34:32.670Z,11.00
2022-10-12T09:37:01.727Z,11.10
2022-10-12T09:39:31.032Z,11.10
2022-10-12T09:41:57.895Z,11.10
2022-10-12T09:44:24.648Z,11.20
2022-10-12T09:46:55.249Z,11.20
2022-10-12T09:49:22.206Z,11.30
2022-10-12T09:51:58.578Z,11.30
2022-10-12T09:54:27.254Z,11.30
2022-10-12T09:56:56.108Z,11.40
2022-10-12T09:59:32.978Z,11.40
2022-10-12T10:02:02.937Z,11.50
2022-10-12T10:04:30.333Z,11.50
2022-10-12T10:07:12.536Z,11.50
2022-10-12T10:09:39.331Z,11.60
2022-10-12T10:12:12.402Z,11.60
2022-10-12T10:14:41.957Z,11.60
2022-10-12T10:17:09.498Z,11.70
2022-10-12T10:19:36.847Z,11.70
2022-10-12T10:22:05.640Z,11.80
2022-10-12T10:24:33.363Z,11.80
2022-10-12T10:27:02.101Z,11.80
2022-10-12T10:29:35.456Z,11.90
2022-10-12T10:32:12.563Z,11.90
2022-10-12T10:34:41.272Z,11.90
2022-10-12T10:37:22.585Z,12.00
2022-10-12T10:40:39.218Z,12.00
2022-10-12T10:43:07.254Z,12.10
2022-10-12T10:45:39.101Z,12.20
2022-10-12T10:48:10.746Z,12.20
2022-10-12T10:50:39.371Z,12.20
2022-10-12T10:53:13.331Z,12.30
2022-10-12T10:55:41.138Z,12.20
2022-10-12T10:58:20.430Z,12.30
2022-10-12T11:00:51.647Z,12.40
2022-10-12T11:06:56.598Z,12.40
2022-10-12T11:09:30.463Z,12.40
2022-10-12T11:12:03.132Z,12.50
2022-10-12T11:14:42.102Z,12.50
2022-10-12T11:17:18.282Z,12.50
2022-10-12T11:19:51.788Z,12.60
2022-10-12T11:22:24.012Z,12.60
2022-10-12T11:25:11.132Z,12.60
2022-10-12T11:27:39.271Z,12.70
2022-10-12T11:30:17.212Z,12.70
2022-10-12T11:32:48.527Z,12.80
2022-10-12T11:35:17.021Z,12.80
2022-10-12T11:37:47.303Z,12.90
2022-10-12T11:40:47.847Z,12.90
2022-10-12T11:43:13.316Z,12.90
2022-10-12T11:45:43.198Z,13.00
2022-10-12T11:48:13.523Z,13.00
2022-10-12T11:50:42.336Z,13.00
2022-10-12T11:53:28.121Z,13.00
2022-10-12T11:55:59.014Z,13.10
2022-10-12T11:58:48.849Z,13.10
2022-10-12T12:01:15.499Z,13.10
2022-10-12T12:03:45.473Z,13.20
2022-10-12T12:06:30.816Z,13.20
2022-10-12T12:08:57.984Z,13.20
2022-10-12T12:11:26.836Z,13.20
2022-10-12T12:14:16.877Z,13.20
2022-10-12T12:16:47.430Z,13.30
2022-10-12T12:19:17.640Z,13.30
2022-10-12T12:22:03.573Z,13.30
2022-10-12T12:24:30.696Z,13.40
2022-10-12T12:26:57.601Z,13.40
2022-10-12T12:29:27.991Z,13.40
2022-10-12T12:31:56.329Z,13.40
2022-10-12T12:34:23.318Z,13.40
2022-10-12T12:36:51.631Z,13.40
2022-10-12T12:39:31.870Z,13.50
2022-10-12T12:42:03.436Z,13.50
2022-10-12T12:44:41.157Z,13.50
2022-10-12T12:47:43.296Z,13.50
2022-10-12T12:50:05.591Z,13.50
2022-10-12T12:52:32.330Z,13.50
2022-10-12T12:55:05.217Z,13.50
2022-10-12T12:57:31.948Z,13.50
2022-10-12T13:00:04.957Z,13.60
2022-10-12T13:02:50.696Z,13.60
2022-10-12T13:05:23.168Z,13.60
2022-10-12T13:08:03.280Z,13.60
2022-10-12T13:10:40.552Z,13.60
2022-10-12T13:13:23.677Z,13.60
2022-10-12T13:16:36.645Z,13.60
2022-10-12T13:19:22.300Z,13.70
2022-10-12T13:21:51.086Z,13.70
2022-10-12T13:24:41.354Z,13.70
2022-10-12T13:27:16.864Z,13.70
2022-10-12T13:29:46.992Z,13.70
2022-10-12T13:32:34.276Z,13.70
2022-10-12T13:35:14.282Z,13.70
2022-10-12T13:37:48.602Z,13.80
2022-10-12T13:41:00.434Z,13.80
2022-10-12T13:43:46.257Z,13.80
2022-10-12T13:46:14.258Z,13.80
2022-10-12T13:48:59.295Z,13.80
2022-10-12T13:51:28.770Z,13.80
2022-10-12T13:53:59.651Z,13.80
2022-10-12T13:56:28.257Z,13.80
2022-10-12T14:06:52.993Z,13.80
2022-10-12T14:14:23.659Z,13.70
2022-10-12T14:20:39.370Z,13.80
2022-10-12T14:24:06.542Z,13.80
2022-10-12T14:26:34.957Z,13.80
2022-10-12T14:29:42.699Z,13.80
2022-10-12T14:32:12.456Z,13.80
2022-10-12T14:45:44.114Z,13.80
2022-10-12T14:52:48.398Z,13.70
2022-10-12T15:01:41.005Z,13.60
2022-10-12T15:08:20.952Z,13.60
2022-10-12T15:10:51.066Z,13.60
2022-10-12T15:13:17.858Z,13.60
2022-10-12T15:15:45.889Z,13.60
2022-10-12T15:18:12.727Z,13.60
2022-10-12T15:20:40.046Z,13.60
2022-10-12T15:23:07.106Z,13.50
2022-10-12T15:25:52.977Z,13.50
2022-10-12T15:28:30.044Z,13.50
2022-10-12T15:31:16.474Z,13.50
2022-10-12T15:33:44.441Z,13.50
2022-10-12T15:36:11.388Z,13.40
2022-10-12T15:38:38.441Z,13.40
2022-10-12T15:41:05.252Z,13.40
2022-10-12T15:43:33.726Z,13.40
2022-10-12T15:46:02.708Z,13.40
2022-10-12T15:48:29.973Z,13.30
2022-10-12T15:50:56.940Z,13.30
2022-10-12T15:53:24.869Z,13.30
2022-10-12T15:55:55.562Z,13.20
2022-10-12T15:58:23.006Z,13.20
2022-10-12T16:00:49.909Z,13.20
2022-10-12T16:03:24.588Z,13.20
2022-10-12T16:05:53.055Z,13.10
2022-10-12T16:08:19.905Z,13.10
2022-10-12T16:10:52.178Z,13.10
2022-10-12T16:13:18.928Z,13.00
2022-10-12T16:15:45.784Z,13.00
2022-10-12T16:18:18.030Z,13.00
2022-10-12T16:20:52.684Z,12.90
2022-10-12T16:23:23.632Z,12.90
2022-10-12T16:25:51.198Z,12.80
2022-10-12T16:28:18.207Z,12.80
2022-10-12T16:30:45.167Z,12.70
2022-10-12T16:33:12.119Z,12.70
2022-10-12T16:35:41.107Z,12.70
2022-10-12T16:38:09.386Z,12.60
2022-10-12T16:40:38.690Z,12.60
2022-10-12T16:43:19.525Z,12.50
2022-10-12T16:45:54.317Z,12.40
2022-10-12T16:48:22.284Z,12.40
2022-10-12T16:50:49.091Z,12.40
2022-10-12T16:53:17.061Z,12.30
2022-10-12T16:55:43.898Z,12.20
2022-10-12T16:58:10.663Z,12.20
2022-10-12T17:00:37.661Z,12.10
2022-10-12T17:03:04.676Z,12.10
2022-10-12T17:05:31.576Z,12.00
2022-10-12T17:07:58.702Z,11.90
2022-10-12T17:10:25.531Z,11.90
2022-10-12T17:12:52.569Z,11.90
2022-10-12T17:15:19.473Z,11.80
2022-10-12T17:17:46.377Z,11.70
2022-10-12T17:20:13.215Z,11.70
2022-10-12T17:22:40.048Z,11.70
2022-10-12T17:25:07.138Z,11.70
2022-10-12T17:27:34.073Z,11.60
2022-10-12T17:30:01.992Z,11.50
2022-10-12T17:32:29.868Z,11.50
2022-10-12T17:34:58.048Z,11.40
2022-10-12T17:37:25.107Z,11.30
2022-10-12T17:39:53.139Z,11.30
2022-10-12T17:42:22.020Z,11.30
2022-10-12T17:44:49.822Z,11.20
2022-10-12T17:47:16.952Z,11.20
2022-10-12T17:49:43.952Z,11.10
2022-10-12T17:52:11.626Z,11.10
2022-10-12T17:54:38.487Z,11.00
2022-10-12T17:57:05.240Z,11.00
2022-10-12T17:59:33.168Z,11.00
2022-10-12T18:01:59.929Z,11.00
2022-10-12T18:04:26.779Z,10.90
2022-10-12T18:06:53.848Z,10.90
2022-10-12T18:09:21.786Z,10.90
2022-10-12T18:11:48.754Z,10.80
2022-10-12T18:14:15.707Z,10.80
2022-10-12T18:16:42.525Z,10.70
2022-10-12T18:19:11.397Z,10.70
2022-10-12T18:21:38.786Z,10.70
2022-10-12T18:24:07.010Z,10.70
2022-10-12T18:26:33.905Z,10.60
2022-10-12T18:29:01.956Z,10.60
2022-10-12T18:31:30.260Z,10.50
2022-10-12T18:34:00.162Z,10.50
2022-10-12T18:36:27.457Z,10.50
2022-10-12T18:38:55.383Z,10.50
2022-10-12T18:41:25.699Z,10.40
2022-10-12T18:43:59.735Z,10.40
2022-10-12T18:46:29.231Z,10.40
2022-10-12T18:49:01.451Z,10.30
2022-10-12T18:51:29.813Z,10.30
2022-10-12T18:53:57.502Z,10.30
2022-10-12T18:56:24.378Z,10.30
2022-10-12T18:58:51.274Z,10.20
2022-10-12T19:01:19.540Z,10.20
2022-10-12T19:03:48.668Z,10.20
2022-10-12T19:06:16.750Z,10.20
2022-10-12T19:08:44.374Z,10.20
2022-10-12T19:11:12.227Z,10.20
2022-10-12T19:13:39.343Z,10.20
2022-10-12T19:16:15.842Z,10.20
2022-10-12T19:18:42.571Z,10.10
2022-10-12T19:21:11.784Z,10.10
2022-10-12T19:23:38.791Z,10.10
2022-10-12T19:26:07.078Z,10.10
2022-10-12T19:28:34.331Z,10.10
2022-10-12T19:31:02.223Z,10.20
2022-10-12T19:33:29.295Z,10.10
2022-10-12T19:35:56.176Z,10.10
2022-10-12T19:38:22.931Z,10.10
2022-10-12T19:40:50.825Z,10.10
2022-10-12T19:43:17.699Z,10.10
2022-10-12T19:45:44.712Z,10.10
2022-10-12T19:48:11.880Z,10.10
2022-10-12T19:50:38.764Z,10.10
2022-10-12T19:53:05.820Z,10.10
2022-10-12T19:55:34.048Z,10.10
2022-10-12T19:58:01.410Z,10.10
2022-10-12T20:00:28.422Z,10.10
2022-10-12T20:02:55.181Z,10.10
2022-10-12T20:05:21.953Z,10.10
2022-10-12T20:07:48.732Z,10.10
2022-10-12T20:10:15.650Z,10.10
2022-10-12T20:12:42.434Z,10.20
2022-10-12T20:15:09.697Z,10.20
2022-10-12T20:17:37.071Z,10.20
2022-10-12T20:20:05.283Z,10.20
2022-10-12T20:22:32.508Z,10.20
2022-10-12T20:25:01.015Z,10.20
2022-10-12T20:28:10.016Z,10.20
2022-10-12T20:30:47.744Z,10.20
2022-10-12T20:33:20.364Z,10.20
2022-10-12T20:36:14.775Z,10.20
2022-10-12T20:38:48.736Z,10.20
2022-10-12T20:41:18.749Z,10.20
2022-10-12T20:43:46.829Z,10.20
2022-10-12T20:46:15.014Z,10.20
2022-10-12T20:48:42.614Z,10.20
2022-10-12T20:51:10.829Z,10.20
2022-10-12T20:53:38.255Z,10.20
2022-10-12T20:56:05.706Z,10.20
2022-10-12T20:58:33.075Z,10.20
2022-10-12T21:01:07.161Z,10.20
2022-10-12T21:03:35.143Z,10.20
2022-10-12T21:06:07.228Z,10.20
2022-10-12T21:08:37.439Z,10.20
2022-10-12T21:11:04.992Z,10.20
2022-10-12T21:13:36.374Z,10.20
2022-10-12T21:16:03.446Z,10.20
2022-10-12T21:18:34.135Z,10.20
2022-10-12T21:21:08.502Z,10.20
2022-10-12T21:23:35.576Z,10.20
2022-10-12T21:26:13.226Z,10.20
2022-10-12T21:28:40.188Z,10.20
2022-10-12T21:31:08.210Z,10.20
2022-10-12T21:33:36.444Z,10.20
2022-10-12T21:36:13.784Z,10.20
2022-10-12T21:38:41.193Z,10.20
2022-10-12T21:41:08.676Z,10.20
2022-10-12T21:43:36.472Z,10.20
2022-10-12T21:46:04.359Z,10.20
2022-10-12T21:48:32.840Z,10.20
2022-10-12T21:51:07.439Z,10.20
2022-10-12T21:53:36.064Z,10.20
2022-10-12T21:56:09.861Z,10.10
2022-10-12T21:58:36.885Z,10.20
2022-10-12T22:01:07.722Z,10.20
2022-10-12T22:03:35.904Z,10.10
2022-10-12T22:06:03.577Z,10.10
2022-10-12T22:08:53.760Z,10.10
2022-10-12T22:11:29.725Z,10.10
2022-10-12T22:13:57.394Z,10.10
2022-10-12T22:16:34.082Z,10.10
2022-10-12T22:19:02.016Z,10.10
2022-10-12T22:24:18.621Z,10.00
2022-10-12T22:26:45.486Z,10.00
2022-10-12T22:29:16.217Z,10.00
2022-10-12T22:31:52.087Z,10.00
2022-10-12T22:34:18.895Z,10.00
2022-10-12T22:36:45.778Z,10.00
2022-10-12T22:39:43.680Z,10.10
2022-10-12T22:42:10.385Z,10.10
2022-10-12T22:44:37.542Z,10.10
2022-10-12T22:47:04.499Z,10.10
2022-10-12T22:49:31.280Z,10.10
2022-10-12T22:51:58.460Z,10.10
2022-10-12T22:54:26.457Z,10.20
2022-10-12T22:56:53.336Z,10.20
2022-10-12T22:59:20.406Z,10.20
2022-10-12T23:01:47.308Z,10.20
2022-10-12T23:04:14.118Z,10.20
2022-10-12T23:06:40.969Z,10.20
2022-10-12T23:09:07.878Z,10.20
2022-10-12T23:11:34.664Z,10.20
2022-10-12T23:14:01.866Z,10.20
2022-10-12T23:16:30.725Z,10.30
2022-10-12T23:18:59.870Z,10.30
2022-10-12T23:21:27.306Z,10.30
2022-10-12T23:23:54.373Z,10.30
2022-10-12T23:26:22.309Z,10.30
2022-10-12T23:28:49.852Z,10.30
2022-10-12T23:31:21.116Z,10.30
2022-10-12T23:33:55.143Z,10.40
2022-10-12T23:36:22.011Z,10.40
2022-10-12T23:38:48.803Z,10.40
2022-10-12T23:41:15.493Z,10.40
2022-10-12T23:43:42.360Z,10.40
2022-10-12T23:46:10.498Z,10.40
2022-10-12T23:48:37.337Z,10.50
2022-10-12T23:51:10.905Z,10.50
2022-10-12T23:53:38.070Z,10.40
2022-10-12T23:56:05.263Z,10.50
2022-10-12T23:58:31.976Z,10.50
